Time;durP1;ratioP1;P1;durP2;ratioP2;P2;SDS_P1;SDS_P2;PMS_P1;PMS_P2;Temp;Humidity;BMP_temperature;BMP_pressure;BME280_temperature;BME280_humidity;BME280_pressure;Samples;Min_cycle;Max_cycle;Signal;HPM_P1;HPM_P2
2022/12/16 00:00:16;;;;;;;;;;;19.60;40.80;;;;;;7346065;19;19944;-48
2022/12/16 00:02:41;;;;;;;;;;;19.60;40.80;;;;;;7349413;19;19930;-47
2022/12/16 00:05:07;;;;;;;;;;;19.60;40.70;;;;;;7355888;19;19915;-46
2022/12/16 00:07:33;;;;;;;;;;;19.60;40.70;;;;;;7350870;19;19919;-47
2022/12/16 00:09:58;;;;;;;;;;;19.60;40.80;;;;;;7347336;19;19919;-52
2022/12/16 00:12:23;;;;;;;;;;;19.60;40.70;;;;;;7348514;19;19907;-51
2022/12/16 00:14:49;;;;;;;;;;;19.60;40.70;;;;;;7347357;19;19911;-53
2022/12/16 00:17:14;;;;;;;;;;;19.60;40.80;;;;;;7362277;19;20662;-49
2022/12/16 00:19:40;;;;;;;;;;;19.60;40.70;;;;;;7352727;19;19919;-49
2022/12/16 00:22:06;;;;;;;;;;;19.60;40.70;;;;;;7353580;19;19911;-46
2022/12/16 00:24:31;;;;;;;;;;;19.60;40.80;;;;;;7358977;19;19926;-54
2022/12/16 00:26:57;;;;;;;;;;;19.60;40.70;;;;;;7364182;19;20006;-47
2022/12/16 00:29:22;;;;;;;;;;;19.60;40.70;;;;;;7363214;19;19930;-52
2022/12/16 00:31:48;;;;;;;;;;;19.60;40.70;;;;;;7354139;19;19945;-46
2022/12/16 00:34:14;;;;;;;;;;;19.60;40.70;;;;;;7359408;19;19911;-49
2022/12/16 00:36:39;;;;;;;;;;;19.60;40.60;;;;;;7360707;19;20004;-54
2022/12/16 00:39:05;;;;;;;;;;;19.60;40.50;;;;;;7348606;19;19919;-48
2022/12/16 00:41:30;;;;;;;;;;;19.60;40.60;;;;;;7354511;19;20289;-50
2022/12/16 00:43:55;;;;;;;;;;;19.60;40.60;;;;;;7353868;19;20366;-55
2022/12/16 00:46:21;;;;;;;;;;;19.60;40.60;;;;;;7340192;19;19951;-50
2022/12/16 00:48:46;;;;;;;;;;;19.60;40.60;;;;;;7345648;19;19918;-48
2022/12/16 00:51:12;;;;;;;;;;;19.60;40.60;;;;;;7350584;19;19987;-48
2022/12/16 00:53:37;;;;;;;;;;;19.60;40.60;;;;;;7353480;19;20382;-50
2022/12/16 00:56:07;;;;;;;;;;;19.60;40.50;;;;;;7350220;19;19998;-49
2022/12/16 00:58:32;;;;;;;;;;;19.60;40.50;;;;;;7344877;19;19919;-50
2022/12/16 01:00:58;;;;;;;;;;;19.60;40.50;;;;;;7365768;19;19969;-50
2022/12/16 01:03:24;;;;;;;;;;;19.60;40.50;;;;;;7354768;19;20016;-48
2022/12/16 01:05:49;;;;;;;;;;;19.60;40.50;;;;;;7363564;19;19932;-47
2022/12/16 01:08:15;;;;;;;;;;;19.60;40.50;;;;;;7348883;19;19931;-50
2022/12/16 01:10:40;;;;;;;;;;;19.60;40.60;;;;;;7354351;19;19918;-55
2022/12/16 01:13:05;;;;;;;;;;;19.60;40.50;;;;;;7359038;19;19919;-49
2022/12/16 01:15:31;;;;;;;;;;;19.60;40.60;;;;;;7357820;19;20521;-47
2022/12/16 01:17:57;;;;;;;;;;;19.60;40.50;;;;;;7360894;19;20252;-51
2022/12/16 01:20:22;;;;;;;;;;;19.60;40.50;;;;;;7371137;19;20265;-52
2022/12/16 01:22:48;;;;;;;;;;;19.60;40.50;;;;;;7355660;19;22324;-48
2022/12/16 01:25:13;;;;;;;;;;;19.60;40.50;;;;;;7350397;19;19979;-50
2022/12/16 01:27:39;;;;;;;;;;;19.60;40.20;;;;;;7362603;19;20383;-47
2022/12/16 01:30:05;;;;;;;;;;;19.50;40.20;;;;;;7365308;19;19933;-48
2022/12/16 01:32:30;;;;;;;;;;;19.40;40.30;;;;;;7374221;19;19930;-51
2022/12/16 01:34:56;;;;;;;;;;;19.30;40.30;;;;;;7375497;19;19918;-45
2022/12/16 01:37:22;;;;;;;;;;;19.30;40.50;;;;;;7366949;19;19984;-46
2022/12/16 01:39:48;;;;;;;;;;;19.20;40.60;;;;;;7351903;19;19919;-48
2022/12/16 01:42:17;;;;;;;;;;;19.20;40.60;;;;;;7365433;19;19915;-52
2022/12/16 01:44:44;;;;;;;;;;;19.10;40.60;;;;;;7363224;19;20881;-46
2022/12/16 01:47:13;;;;;;;;;;;19.10;40.50;;;;;;7374897;19;19922;-47
2022/12/16 01:49:42;;;;;;;;;;;19.10;40.70;;;;;;7369771;19;19914;-52
2022/12/16 01:52:09;;;;;;;;;;;19.00;40.60;;;;;;7369345;19;20240;-48
2022/12/16 01:54:38;;;;;;;;;;;19.00;40.80;;;;;;7357474;19;20016;-51
2022/12/16 01:57:16;;;;;;;;;;;18.90;40.80;;;;;;7359569;19;19941;-52
2022/12/16 01:59:43;;;;;;;;;;;19.00;41.00;;;;;;7373551;19;19974;-50
2022/12/16 02:07:28;;;;;;;;;;;18.90;40.90;;;;;;7351857;19;20016;-54
2022/12/16 02:09:54;;;;;;;;;;;19.00;40.90;;;;;;7376814;19;19958;-56
2022/12/16 02:12:28;;;;;;;;;;;18.90;40.80;;;;;;7369274;19;24829;-55
2022/12/16 02:15:09;;;;;;;;;;;18.90;40.80;;;;;;7364658;19;19930;-55
2022/12/16 02:17:40;;;;;;;;;;;19.00;40.80;;;;;;7383196;19;19922;-57
2022/12/16 02:20:24;;;;;;;;;;;19.00;40.80;;;;;;7379525;19;19956;-57
2022/12/16 02:22:59;;;;;;;;;;;19.00;40.80;;;;;;7374458;19;19934;-53
2022/12/16 02:25:43;;;;;;;;;;;19.10;40.60;;;;;;7370312;19;20343;-55
2022/12/16 02:28:08;;;;;;;;;;;19.10;40.60;;;;;;7376014;19;19980;-56
2022/12/16 02:30:46;;;;;;;;;;;19.10;40.60;;;;;;7377726;19;20450;-55
2022/12/16 02:33:12;;;;;;;;;;;19.10;40.50;;;;;;7370840;19;19919;-55
2022/12/16 02:35:40;;;;;;;;;;;19.10;40.60;;;;;;7372711;19;19934;-53
2022/12/16 02:38:12;;;;;;;;;;;19.20;40.60;;;;;;7372036;19;19931;-55
2022/12/16 02:40:44;;;;;;;;;;;19.20;40.50;;;;;;7379465;19;19982;-57
2022/12/16 02:43:14;;;;;;;;;;;19.20;40.60;;;;;;7367645;19;19926;-54
2022/12/16 02:45:39;;;;;;;;;;;19.20;40.50;;;;;;7377482;19;19982;-57
2022/12/16 02:48:05;;;;;;;;;;;19.20;40.60;;;;;;7369467;19;20002;-54
2022/12/16 02:50:33;;;;;;;;;;;19.20;40.50;;;;;;7377357;19;19919;-56
2022/12/16 02:52:59;;;;;;;;;;;19.20;40.50;;;;;;7374535;19;19923;-57
2022/12/16 02:55:31;;;;;;;;;;;19.20;40.50;;;;;;7376121;19;19937;-53
2022/12/16 02:58:10;;;;;;;;;;;19.20;40.50;;;;;;7370468;19;19930;-55
2022/12/16 03:00:41;;;;;;;;;;;19.30;40.50;;;;;;7368707;19;20791;-52
2022/12/16 03:03:18;;;;;;;;;;;19.30;40.50;;;;;;7363065;19;20864;-52
2022/12/16 03:05:47;;;;;;;;;;;19.30;40.50;;;;;;7365574;19;19944;-54
2022/12/16 03:08:16;;;;;;;;;;;19.20;40.40;;;;;;7373452;19;19926;-56
2022/12/16 03:10:44;;;;;;;;;;;19.20;40.40;;;;;;7376949;19;19983;-57
2022/12/16 03:13:10;;;;;;;;;;;19.20;40.40;;;;;;7377864;19;19952;-57
2022/12/16 03:15:36;;;;;;;;;;;19.20;40.50;;;;;;7380897;19;19936;-54
2022/12/16 03:18:03;;;;;;;;;;;19.20;40.50;;;;;;7367059;19;19919;-53
2022/12/16 03:20:49;;;;;;;;;;;19.20;40.40;;;;;;7360195;19;19974;-54
2022/12/16 03:23:18;;;;;;;;;;;19.20;40.40;;;;;;7367242;19;19915;-53
2022/12/16 03:25:46;;;;;;;;;;;19.20;40.40;;;;;;7381448;19;19927;-55
2022/12/16 03:28:26;;;;;;;;;;;19.20;40.40;;;;;;7374960;19;20453;-55
2022/12/16 03:30:56;;;;;;;;;;;19.20;40.40;;;;;;7369809;19;19919;-57
2022/12/16 03:33:25;;;;;;;;;;;19.20;40.40;;;;;;7367570;19;19921;-55
2022/12/16 03:35:55;;;;;;;;;;;19.20;40.50;;;;;;7369237;19;20018;-56
2022/12/16 03:38:22;;;;;;;;;;;19.20;40.50;;;;;;7375650;19;19925;-56
2022/12/16 03:40:49;;;;;;;;;;;19.20;40.50;;;;;;7375394;19;19929;-56
2022/12/16 03:43:14;;;;;;;;;;;19.20;40.40;;;;;;7375920;19;19925;-56
2022/12/16 03:45:41;;;;;;;;;;;19.20;40.30;;;;;;7375678;19;20494;-54
2022/12/16 03:48:08;;;;;;;;;;;19.20;40.40;;;;;;7379139;19;19919;-58
2022/12/16 03:50:34;;;;;;;;;;;19.20;40.50;;;;;;7369441;19;19911;-56
2022/12/16 03:53:00;;;;;;;;;;;19.20;40.30;;;;;;7369765;19;19922;-59
2022/12/16 03:55:26;;;;;;;;;;;19.20;40.30;;;;;;7374574;19;19974;-55
2022/12/16 03:57:51;;;;;;;;;;;19.20;40.30;;;;;;7359726;19;21949;-57
2022/12/16 04:00:17;;;;;;;;;;;19.20;40.30;;;;;;7362172;19;19933;-57
2022/12/16 04:02:42;;;;;;;;;;;19.20;40.30;;;;;;7369608;19;19923;-56
2022/12/16 04:05:08;;;;;;;;;;;19.20;40.40;;;;;;7358917;19;19942;-58
2022/12/16 04:07:34;;;;;;;;;;;19.10;40.40;;;;;;7360074;19;19950;-57
2022/12/16 04:09:59;;;;;;;;;;;19.20;40.40;;;;;;7371505;19;20327;-57
2022/12/16 04:26:15;;;;;;;;;;;19.20;40.40;;;;;;7377217;19;19929;-57
2022/12/16 04:28:40;;;;;;;;;;;19.10;40.30;;;;;;7373230;19;19938;-55
2022/12/16 04:31:06;;;;;;;;;;;19.10;40.30;;;;;;7364153;19;19922;-58
